createdAt,value
2019-02-25T00:02:10.911Z,-3.10
2019-02-25T00:04:39.364Z,-3.00
2019-02-25T00:07:07.780Z,-3.10
2019-02-25T00:09:36.247Z,-3.10
2019-02-25T00:12:04.738Z,-3.10
2019-02-25T00:14:33.175Z,-3.10
2019-02-25T00:17:01.603Z,-3.20
2019-02-25T00:19:30.060Z,-3.20
2019-02-25T00:21:58.481Z,-3.20
2019-02-25T00:24:26.918Z,-3.20
2019-02-25T00:26:55.369Z,-3.30
2019-02-25T00:29:23.798Z,-3.20
2019-02-25T00:31:52.711Z,-3.30
2019-02-25T00:34:21.156Z,-3.30
2019-02-25T00:36:49.578Z,-3.30
2019-02-25T00:39:19.540Z,-3.40
2019-02-25T00:41:47.978Z,-3.40
2019-02-25T00:44:16.405Z,-3.40
2019-02-25T00:46:44.860Z,-3.40
2019-02-25T00:49:13.338Z,-3.50
2019-02-25T00:51:41.778Z,-3.50
2019-02-25T00:54:10.195Z,-3.50
2019-02-25T00:56:38.636Z,-3.50
2019-02-25T00:59:07.056Z,-3.50
2019-02-25T01:01:35.500Z,-3.60
2019-02-25T01:04:03.983Z,-3.50
2019-02-25T01:06:32.427Z,-3.60
2019-02-25T01:09:00.845Z,-3.60
2019-02-25T01:11:29.295Z,-3.60
2019-02-25T01:13:57.714Z,-3.60
2019-02-25T01:16:26.150Z,-3.60
2019-02-25T01:18:54.579Z,-3.60
2019-02-25T01:21:23.136Z,-3.60
2019-02-25T01:23:51.563Z,-3.60
2019-02-25T01:26:20.002Z,-3.60
2019-02-25T01:28:48.442Z,-3.70
2019-02-25T01:31:16.897Z,-3.70
2019-02-25T01:33:45.306Z,-3.70
2019-02-25T01:36:13.789Z,-3.70
2019-02-25T01:38:42.248Z,-3.80
2019-02-25T01:41:10.680Z,-3.80
2019-02-25T01:43:39.122Z,-3.80
2019-02-25T01:46:07.534Z,-3.80
2019-02-25T01:48:35.979Z,-3.80
2019-02-25T01:51:04.390Z,-3.90
2019-02-25T01:53:32.851Z,-3.90
2019-02-25T01:56:01.271Z,-3.90
2019-02-25T01:58:29.720Z,-3.90
2019-02-25T02:00:58.147Z,-3.90
2019-02-25T02:03:26.633Z,-4.00
2019-02-25T02:05:55.054Z,-4.00
2019-02-25T02:08:23.502Z,-4.00
2019-02-25T02:10:51.931Z,-4.00
2019-02-25T02:13:20.361Z,-4.00
2019-02-25T02:15:48.807Z,-4.10
2019-02-25T02:18:17.231Z,-4.10
2019-02-25T02:20:45.665Z,-4.10
2019-02-25T02:23:14.098Z,-4.10
2019-02-25T02:25:42.545Z,-4.20
2019-02-25T02:28:10.962Z,-4.20
2019-02-25T02:30:39.408Z,-4.20
2019-02-25T02:33:07.822Z,-4.20
2019-02-25T02:35:36.348Z,-4.20
2019-02-25T02:38:04.938Z,-4.20
2019-02-25T02:40:33.460Z,-4.20
2019-02-25T02:43:02.039Z,-4.20
2019-02-25T02:45:33.597Z,-4.20
2019-02-25T02:48:20.016Z,-4.30
2019-02-25T02:50:48.480Z,-4.30
2019-02-25T02:53:16.902Z,-4.30
2019-02-25T02:55:45.337Z,-4.30
2019-02-25T02:58:13.782Z,-4.30
2019-02-25T03:00:42.371Z,-4.30
2019-02-25T03:03:10.789Z,-4.30
2019-02-25T03:05:39.303Z,-4.30
2019-02-25T03:08:07.718Z,-4.40
2019-02-25T03:10:36.172Z,-4.40
2019-02-25T03:13:04.722Z,-4.40
2019-02-25T03:15:33.209Z,-4.40
2019-02-25T03:18:01.650Z,-4.40
2019-02-25T03:20:30.162Z,-4.40
2019-02-25T03:22:58.607Z,-4.40
2019-02-25T03:25:27.028Z,-4.40
2019-02-25T03:27:55.482Z,-4.50
2019-02-25T03:30:23.976Z,-4.50
2019-02-25T03:32:52.423Z,-4.50
2019-02-25T03:35:20.865Z,-4.50
2019-02-25T03:37:49.363Z,-4.50
2019-02-25T03:40:19.859Z,-4.50
2019-02-25T03:42:49.214Z,-4.50
2019-02-25T03:45:18.889Z,-4.50
2019-02-25T03:47:47.332Z,-4.60
2019-02-25T03:50:15.903Z,-4.60
2019-02-25T03:52:44.353Z,-4.60
2019-02-25T03:55:17.524Z,-4.60
2019-02-25T03:57:46.417Z,-4.60
2019-02-25T04:00:17.514Z,-4.60
2019-02-25T04:02:46.079Z,-4.60
2019-02-25T04:05:14.711Z,-4.60
2019-02-25T04:07:43.294Z,-4.60
2019-02-25T04:10:13.468Z,-4.60
2019-02-25T04:12:42.062Z,-4.70
2019-02-25T04:15:16.163Z,-4.70
2019-02-25T04:17:44.741Z,-4.70
2019-02-25T04:20:15.661Z,-4.70
2019-02-25T04:22:44.145Z,-4.60
2019-02-25T04:25:12.672Z,-4.70
2019-02-25T04:27:41.102Z,-4.70
2019-02-25T04:30:14.811Z,-4.70
2019-02-25T04:32:43.230Z,-4.70
2019-02-25T04:35:13.121Z,-4.70
2019-02-25T04:37:41.542Z,-4.70
2019-02-25T04:40:12.031Z,-4.70
2019-02-25T04:42:40.464Z,-4.70
2019-02-25T04:45:19.199Z,-4.70
2019-02-25T04:47:47.652Z,-4.80
2019-02-25T04:50:16.158Z,-4.70
2019-02-25T04:52:44.656Z,-4.70
2019-02-25T04:55:14.547Z,-4.80
2019-02-25T04:57:43.151Z,-4.80
2019-02-25T05:00:27.092Z,-4.80
2019-02-25T05:02:55.547Z,-4.80
2019-02-25T05:05:24.001Z,-4.80
2019-02-25T05:07:52.417Z,-4.90
2019-02-25T05:10:20.860Z,-4.90
2019-02-25T05:12:59.793Z,-4.90
2019-02-25T05:15:29.902Z,-4.90
2019-02-25T05:17:58.317Z,-4.90
2019-02-25T05:20:26.786Z,-4.90
2019-02-25T05:22:55.283Z,-4.90
2019-02-25T05:25:23.716Z,-4.90
2019-02-25T05:27:52.158Z,-4.90
2019-02-25T05:30:20.612Z,-4.90
2019-02-25T05:32:49.032Z,-4.90
2019-02-25T05:35:17.450Z,-5.00
2019-02-25T05:37:45.894Z,-5.00
2019-02-25T05:40:18.223Z,-5.00
2019-02-25T05:42:46.746Z,-5.00
2019-02-25T05:45:15.698Z,-5.00
2019-02-25T05:47:44.216Z,-5.10
2019-02-25T05:50:15.244Z,-5.10
2019-02-25T05:52:43.686Z,-5.10
2019-02-25T05:55:14.239Z,-5.10
2019-02-25T05:57:42.813Z,-5.10
2019-02-25T06:00:21.612Z,-5.10
2019-02-25T06:02:50.068Z,-5.10
2019-02-25T06:05:18.500Z,-5.10
2019-02-25T06:07:46.967Z,-5.10
2019-02-25T06:10:15.532Z,-5.10
2019-02-25T06:12:44.046Z,-5.10
2019-02-25T06:15:17.354Z,-5.10
2019-02-25T06:17:45.787Z,-5.00
2019-02-25T06:20:18.007Z,-5.10
2019-02-25T06:22:46.520Z,-5.10
2019-02-25T06:25:16.073Z,-5.00
2019-02-25T06:27:44.625Z,-5.00
2019-02-25T06:30:22.748Z,-5.00
2019-02-25T06:32:51.205Z,-5.00
2019-02-25T06:35:19.709Z,-5.00
2019-02-25T06:37:48.164Z,-5.00
2019-02-25T06:40:17.933Z,-5.00
2019-02-25T06:42:46.372Z,-4.90
2019-02-25T06:45:17.890Z,-4.90
2019-02-25T06:47:46.327Z,-4.90
2019-02-25T06:50:14.925Z,-4.90
2019-02-25T06:52:43.330Z,-4.80
2019-02-25T06:55:13.811Z,-4.80
2019-02-25T06:57:42.302Z,-4.70
2019-02-25T07:00:18.334Z,-4.70
2019-02-25T07:02:46.885Z,-4.60
2019-02-25T07:05:33.306Z,-4.50
2019-02-25T07:08:03.384Z,-4.40
2019-02-25T07:10:39.078Z,-4.30
2019-02-25T07:13:11.933Z,-4.20
2019-02-25T07:15:58.026Z,-4.20
2019-02-25T07:18:28.168Z,-4.10
2019-02-25T07:20:58.251Z,-4.00
2019-02-25T07:23:37.693Z,-3.80
2019-02-25T07:26:10.442Z,-3.70
2019-02-25T07:28:43.227Z,-3.60
2019-02-25T07:31:22.255Z,-3.50
2019-02-25T07:33:52.316Z,-3.40
2019-02-25T07:36:25.367Z,-3.30
2019-02-25T07:39:13.586Z,-3.30
2019-02-25T07:41:43.678Z,-3.10
2019-02-25T07:44:13.734Z,-2.90
2019-02-25T07:46:43.824Z,-2.80
2019-02-25T07:49:25.469Z,-2.50
2019-02-25T07:52:11.647Z,-2.40
2019-02-25T07:54:47.474Z,-2.20
2019-02-25T07:57:17.553Z,-2.00
2019-02-25T07:59:53.075Z,-1.90
2019-02-25T08:02:23.159Z,-1.90
2019-02-25T08:04:59.196Z,-1.80
2019-02-25T08:07:45.534Z,-1.60
2019-02-25T08:10:18.338Z,-1.40
2019-02-25T08:12:48.433Z,-1.30
2019-02-25T08:15:21.204Z,-1.00
2019-02-25T08:17:57.010Z,-0.70
2019-02-25T08:20:43.390Z,-0.50
2019-02-25T08:23:13.600Z,-0.10
2019-02-25T08:25:49.390Z,0.10
2019-02-25T08:28:22.429Z,0.40
2019-02-25T08:31:09.192Z,0.60
2019-02-25T08:33:42.030Z,0.90
2019-02-25T08:36:17.900Z,1.20
2019-02-25T08:39:03.839Z,1.50
2019-02-25T08:41:36.732Z,1.90
2019-02-25T08:44:12.507Z,2.20
2019-02-25T08:46:42.568Z,2.70
2019-02-25T08:49:12.646Z,3.10
2019-02-25T08:51:41.114Z,3.50
2019-02-25T08:54:09.633Z,3.90
2019-02-25T08:56:38.131Z,4.20
2019-02-25T08:59:06.654Z,4.70
2019-02-25T09:01:35.089Z,5.00
2019-02-25T09:04:03.525Z,5.50
2019-02-25T09:06:31.940Z,6.10
2019-02-25T09:09:00.393Z,6.50
2019-02-25T09:11:28.802Z,7.10
2019-02-25T09:13:57.321Z,7.20
2019-02-25T09:16:25.795Z,7.50
2019-02-25T09:18:54.211Z,7.90
2019-02-25T09:21:31.417Z,8.30
2019-02-25T09:23:52.788Z,8.80
2019-02-25T09:26:21.234Z,9.20
2019-02-25T09:28:49.642Z,9.40
2019-02-25T09:31:18.101Z,9.80
2019-02-25T09:33:46.519Z,10.10
2019-02-25T09:36:14.953Z,10.70
2019-02-25T09:38:43.372Z,10.80
2019-02-25T09:41:11.803Z,10.80
2019-02-25T09:43:40.240Z,10.90
2019-02-25T09:46:08.671Z,10.70
2019-02-25T09:48:37.113Z,10.70
2019-02-25T09:51:05.544Z,10.90
2019-02-25T09:53:33.980Z,11.30
2019-02-25T09:56:02.401Z,11.90
2019-02-25T09:58:30.869Z,12.30
2019-02-25T10:00:59.286Z,12.30
2019-02-25T10:03:27.731Z,11.90
2019-02-25T10:05:56.151Z,11.60
2019-02-25T10:08:24.594Z,12.10
2019-02-25T10:10:53.089Z,12.70
2019-02-25T10:13:21.552Z,13.10
2019-02-25T10:15:49.971Z,12.90
2019-02-25T10:18:18.410Z,13.10
2019-02-25T10:20:46.823Z,12.90
2019-02-25T10:23:15.257Z,13.30
2019-02-25T10:25:43.692Z,13.50
2019-02-25T10:28:12.134Z,12.90
2019-02-25T10:30:40.568Z,12.90
2019-02-25T10:33:09.022Z,13.70
2019-02-25T10:35:37.426Z,14.00
2019-02-25T10:38:05.912Z,14.30
2019-02-25T10:40:34.361Z,14.50
2019-02-25T10:43:02.799Z,14.30
2019-02-25T10:45:31.283Z,14.40
2019-02-25T10:47:59.722Z,14.10
2019-02-25T10:50:28.802Z,14.90
2019-02-25T10:53:03.521Z,15.00
2019-02-25T10:55:50.877Z,15.10
2019-02-25T10:58:20.688Z,15.40
2019-02-25T11:00:49.116Z,14.30
2019-02-25T11:03:19.508Z,14.00
2019-02-25T11:05:47.718Z,14.30
2019-02-25T11:08:17.767Z,14.20
2019-02-25T11:10:48.729Z,14.50
2019-02-25T11:13:18.272Z,14.80
2019-02-25T11:15:48.340Z,14.90
2019-02-25T11:18:19.190Z,14.10
2019-02-25T11:20:47.208Z,14.20
2019-02-25T11:23:17.595Z,14.60
2019-02-25T11:25:45.778Z,14.90
2019-02-25T11:28:23.568Z,14.70
2019-02-25T11:30:44.972Z,14.40
2019-02-25T11:33:14.658Z,15.00
2019-02-25T11:35:43.430Z,14.80
2019-02-25T11:38:13.236Z,14.90
2019-02-25T11:40:41.684Z,14.60
2019-02-25T11:43:10.570Z,15.30
2019-02-25T11:45:40.259Z,15.60
2019-02-25T11:48:08.755Z,15.50
2019-02-25T11:50:37.200Z,15.20
2019-02-25T11:53:05.700Z,15.30
2019-02-25T11:55:34.345Z,15.20
2019-02-25T11:58:02.774Z,15.30
2019-02-25T12:00:31.358Z,15.60
2019-02-25T12:02:59.801Z,15.70
2019-02-25T12:05:29.762Z,16.10
2019-02-25T12:07:58.215Z,16.00
2019-02-25T12:10:26.631Z,15.80
2019-02-25T12:12:55.065Z,15.80
2019-02-25T12:15:23.724Z,16.10
2019-02-25T12:17:52.195Z,16.20
2019-02-25T12:20:20.664Z,16.10
2019-02-25T12:22:49.359Z,16.10
2019-02-25T12:25:20.855Z,16.40
2019-02-25T12:27:49.300Z,16.40
2019-02-25T12:30:22.862Z,16.10
2019-02-25T12:32:51.372Z,16.10
2019-02-25T12:35:19.875Z,16.50
2019-02-25T12:37:48.439Z,16.40
2019-02-25T12:40:17.306Z,16.50
2019-02-25T12:42:45.748Z,16.10
2019-02-25T12:45:15.120Z,15.90
2019-02-25T12:47:43.637Z,15.60
2019-02-25T12:50:16.490Z,15.50
2019-02-25T12:52:46.473Z,15.40
2019-02-25T12:55:19.394Z,15.60
2019-02-25T12:57:48.077Z,15.30
2019-02-25T13:00:25.861Z,15.30
2019-02-25T13:02:54.301Z,15.30
2019-02-25T13:05:23.562Z,15.50
2019-02-25T13:07:53.539Z,15.60
2019-02-25T13:10:22.120Z,15.50
2019-02-25T13:12:51.612Z,15.70
2019-02-25T13:15:24.333Z,16.10
2019-02-25T13:17:52.883Z,15.60
2019-02-25T13:20:21.407Z,15.80
2019-02-25T13:22:49.831Z,16.00
2019-02-25T13:25:24.250Z,16.20
2019-02-25T13:27:54.388Z,16.00
2019-02-25T13:30:22.970Z,15.80
2019-02-25T13:32:51.471Z,15.80
2019-02-25T13:35:20.044Z,16.20
2019-02-25T13:37:48.602Z,16.50
2019-02-25T13:40:17.786Z,16.80
2019-02-25T13:42:46.284Z,16.70
2019-02-25T13:45:21.294Z,17.20
2019-02-25T13:47:49.874Z,17.30
2019-02-25T13:50:18.939Z,17.20
2019-02-25T13:53:00.692Z,17.10
2019-02-25T13:55:22.115Z,17.50
2019-02-25T13:57:50.583Z,17.40
2019-02-25T14:00:24.435Z,17.40
2019-02-25T14:02:53.031Z,17.00
2019-02-25T14:05:22.204Z,16.80
2019-02-25T14:07:50.758Z,17.00
2019-02-25T14:10:19.944Z,17.00
2019-02-25T14:12:48.512Z,16.70
2019-02-25T14:15:21.428Z,16.80
2019-02-25T14:17:49.974Z,16.00
2019-02-25T14:20:19.863Z,16.00
2019-02-25T14:22:48.431Z,16.10
2019-02-25T14:25:28.837Z,15.80
2019-02-25T14:27:57.608Z,15.70
2019-02-25T14:30:27.058Z,15.60
2019-02-25T14:32:56.604Z,15.50
2019-02-25T14:35:28.562Z,15.40
2019-02-25T14:38:04.253Z,15.30
2019-02-25T14:40:31.672Z,15.20
2019-02-25T14:42:59.831Z,15.10
2019-02-25T14:45:31.542Z,14.90
2019-02-25T14:48:02.019Z,14.90
2019-02-25T14:50:30.000Z,14.90
2019-02-25T14:53:00.245Z,14.80
2019-02-25T14:55:28.718Z,14.70
2019-02-25T14:57:59.890Z,14.70
2019-02-25T15:00:31.424Z,14.70
2019-02-25T15:02:58.747Z,14.50
2019-02-25T15:05:27.304Z,14.60
2019-02-25T15:07:55.985Z,14.50
2019-02-25T15:10:29.014Z,14.50
2019-02-25T15:12:58.789Z,14.40
2019-02-25T15:15:24.939Z,14.20
2019-02-25T15:17:53.514Z,14.10
2019-02-25T15:20:23.452Z,14.10
2019-02-25T15:22:52.986Z,13.90
2019-02-25T15:25:21.759Z,13.90
2019-02-25T15:27:50.423Z,13.80
2019-02-25T15:30:30.739Z,13.80
2019-02-25T15:33:00.450Z,13.80
2019-02-25T15:35:31.694Z,13.80
2019-02-25T15:38:00.482Z,13.70
2019-02-25T15:40:29.228Z,13.70
2019-02-25T15:43:02.270Z,13.60
2019-02-25T15:45:32.903Z,13.60
2019-02-25T15:48:02.543Z,13.60
2019-02-25T15:50:31.171Z,13.60
2019-02-25T15:53:02.510Z,13.50
2019-02-25T15:55:30.519Z,13.40
2019-02-25T15:57:59.084Z,13.40
2019-02-25T16:00:30.013Z,13.30
2019-02-25T16:02:58.725Z,13.20
2019-02-25T16:05:29.562Z,13.20
2019-02-25T16:07:59.949Z,13.10
2019-02-25T16:10:28.399Z,13.00
2019-02-25T16:12:57.871Z,13.00
2019-02-25T16:15:27.445Z,12.90
2019-02-25T16:17:56.100Z,12.60
2019-02-25T16:20:26.771Z,12.50
2019-02-25T16:22:56.591Z,12.40
2019-02-25T16:25:27.565Z,12.40
2019-02-25T16:27:57.003Z,12.40
2019-02-25T16:30:26.730Z,12.20
2019-02-25T16:32:55.751Z,12.10
2019-02-25T16:35:24.191Z,11.90
2019-02-25T16:37:53.041Z,11.80
2019-02-25T16:40:26.451Z,11.60
2019-02-25T16:42:55.006Z,11.50
2019-02-25T16:45:28.462Z,11.40
2019-02-25T16:47:54.535Z,11.30
2019-02-25T16:50:23.248Z,11.00
2019-02-25T16:52:51.842Z,10.80
2019-02-25T16:55:22.713Z,10.60
2019-02-25T16:57:52.290Z,10.40
2019-02-25T17:00:25.347Z,10.20
2019-02-25T17:02:53.570Z,10.10
2019-02-25T17:05:22.431Z,9.80
2019-02-25T17:07:51.028Z,9.60
2019-02-25T17:10:24.090Z,9.40
2019-02-25T17:12:52.552Z,9.20
2019-02-25T17:15:21.758Z,9.00
2019-02-25T17:17:52.413Z,8.80
2019-02-25T17:20:21.597Z,8.60
2019-02-25T17:22:50.103Z,8.40
2019-02-25T17:25:18.602Z,8.30
2019-02-25T17:27:47.264Z,8.20
2019-02-25T17:30:21.662Z,8.10
2019-02-25T17:32:50.408Z,8.00
2019-02-25T17:35:21.938Z,7.80
2019-02-25T17:37:53.103Z,7.60
2019-02-25T17:40:21.437Z,7.50
2019-02-25T17:42:51.654Z,7.40
2019-02-25T17:45:25.082Z,7.30
2019-02-25T17:47:58.184Z,7.10
2019-02-25T17:50:24.976Z,7.00
2019-02-25T17:52:53.533Z,6.90
2019-02-25T17:55:25.384Z,6.80
2019-02-25T17:57:56.363Z,6.70
2019-02-25T18:00:29.823Z,6.60
2019-02-25T18:02:59.335Z,6.50
2019-02-25T18:05:28.634Z,6.30
2019-02-25T18:07:57.204Z,6.20
2019-02-25T18:10:27.253Z,6.10
2019-02-25T18:12:56.952Z,5.90
2019-02-25T18:15:32.786Z,5.80
2019-02-25T18:18:01.495Z,5.70
2019-02-25T18:20:30.622Z,5.60
2019-02-25T18:22:59.401Z,5.50
2019-02-25T18:25:28.168Z,5.40
2019-02-25T18:27:56.836Z,5.30
2019-02-25T18:30:28.287Z,5.20
2019-02-25T18:32:58.338Z,5.10
2019-02-25T18:35:27.498Z,5.00
2019-02-25T18:37:57.995Z,4.90
2019-02-25T18:40:26.487Z,4.80
2019-02-25T18:42:56.440Z,4.80
2019-02-25T18:45:25.571Z,4.70
2019-02-25T18:47:54.241Z,4.60
2019-02-25T18:50:24.720Z,4.50
2019-02-25T18:52:56.341Z,4.40
2019-02-25T18:55:27.097Z,4.30
2019-02-25T18:57:56.481Z,4.20
2019-02-25T19:00:31.409Z,4.10
2019-02-25T19:03:00.361Z,4.00
2019-02-25T19:05:31.461Z,3.90
2019-02-25T19:08:00.213Z,3.80
2019-02-25T19:10:29.047Z,3.70
2019-02-25T19:12:59.194Z,3.60
2019-02-25T19:15:28.448Z,3.50
2019-02-25T19:17:57.076Z,3.40
2019-02-25T19:20:25.679Z,3.40
2019-02-25T19:22:58.041Z,3.30
2019-02-25T19:25:25.762Z,3.30
2019-02-25T19:27:56.476Z,3.10
2019-02-25T19:30:27.837Z,3.00
2019-02-25T19:32:56.566Z,3.00
2019-02-25T19:35:27.795Z,3.00
2019-02-25T19:37:55.467Z,2.80
2019-02-25T19:40:24.745Z,2.80
2019-02-25T19:42:54.740Z,2.80
2019-02-25T19:45:24.419Z,2.70
2019-02-25T19:47:55.341Z,2.60
2019-02-25T19:50:25.361Z,2.60
2019-02-25T19:52:53.734Z,2.50
2019-02-25T19:55:23.535Z,2.40
2019-02-25T19:57:52.156Z,2.40
2019-02-25T20:00:28.248Z,2.30
2019-02-25T20:03:05.737Z,2.20
2019-02-25T20:05:29.059Z,2.10
2019-02-25T20:07:57.523Z,2.00
2019-02-25T20:10:30.028Z,2.00
2019-02-25T20:12:58.334Z,2.00
2019-02-25T20:15:26.903Z,1.90
2019-02-25T20:17:55.488Z,1.80
2019-02-25T20:20:25.635Z,1.70
2019-02-25T20:22:54.238Z,1.80
2019-02-25T20:25:25.839Z,1.70
2019-02-25T20:27:54.974Z,1.70
2019-02-25T20:30:23.625Z,1.60
2019-02-25T20:32:53.564Z,1.60
2019-02-25T20:35:22.652Z,1.50
2019-02-25T20:37:53.721Z,1.40
2019-02-25T20:40:24.120Z,1.40
2019-02-25T20:42:53.467Z,1.30
2019-02-25T20:45:26.080Z,1.30
2019-02-25T20:47:57.109Z,1.30
2019-02-25T20:50:25.745Z,1.20
2019-02-25T20:52:55.856Z,1.10
2019-02-25T20:55:24.991Z,1.10
2019-02-25T20:57:54.484Z,1.10
2019-02-25T21:00:24.405Z,1.10
2019-02-25T21:02:52.942Z,1.10
2019-02-25T21:05:22.803Z,1.00
2019-02-25T21:07:53.400Z,1.00
2019-02-25T21:10:22.730Z,0.90
2019-02-25T21:12:52.990Z,0.90
2019-02-25T21:15:22.234Z,0.80
2019-02-25T21:17:52.001Z,0.90
2019-02-25T21:20:21.502Z,0.80
2019-02-25T21:22:52.907Z,0.70
2019-02-25T21:25:24.411Z,0.70
2019-02-25T21:27:55.108Z,0.60
2019-02-25T21:30:22.038Z,0.60
2019-02-25T21:32:51.940Z,0.50
2019-02-25T21:35:23.493Z,0.40
2019-02-25T21:37:52.821Z,0.40
2019-02-25T21:40:27.128Z,0.40
2019-02-25T21:42:56.644Z,0.40
2019-02-25T21:45:27.174Z,0.30
2019-02-25T21:47:56.513Z,0.30
2019-02-25T21:50:28.408Z,0.30
2019-02-25T21:52:55.712Z,0.30
2019-02-25T21:55:27.472Z,0.30
2019-02-25T21:57:54.872Z,0.20
2019-02-25T22:00:27.085Z,0.20
2019-02-25T22:02:55.994Z,0.10
2019-02-25T22:05:24.489Z,0.10
2019-02-25T22:07:56.656Z,0.00
2019-02-25T22:10:23.131Z,0.00
2019-02-25T22:12:51.592Z,-0.10
2019-02-25T22:15:22.126Z,-0.10
2019-02-25T22:17:52.961Z,-0.10
2019-02-25T22:20:22.587Z,-0.20
2019-02-25T22:22:54.609Z,-0.20
2019-02-25T22:25:22.974Z,-0.30
2019-02-25T22:27:51.492Z,-0.30
2019-02-25T22:30:20.175Z,-0.30
2019-02-25T22:32:48.691Z,-0.30
2019-02-25T22:35:17.207Z,-0.40
2019-02-25T22:37:49.403Z,-0.40
2019-02-25T22:40:17.237Z,-0.40
2019-02-25T22:42:47.899Z,-0.50
2019-02-25T22:45:20.970Z,-0.50
2019-02-25T22:47:49.482Z,-0.50
2019-02-25T22:50:18.070Z,-0.50
2019-02-25T22:52:46.575Z,-0.60
2019-02-25T22:55:17.816Z,-0.60
2019-02-25T22:57:46.034Z,-0.70
2019-02-25T23:00:43.370Z,-0.70
2019-02-25T23:03:15.267Z,-0.70
2019-02-25T23:05:43.649Z,-0.70
2019-02-25T23:08:13.079Z,-0.80
2019-02-25T23:10:44.488Z,-0.80
2019-02-25T23:13:13.270Z,-0.90
2019-02-25T23:15:43.776Z,-0.90
2019-02-25T23:18:13.907Z,-0.90
2019-02-25T23:20:42.015Z,-0.90
2019-02-25T23:23:10.441Z,-0.90
2019-02-25T23:25:38.883Z,-0.90
2019-02-25T23:28:07.298Z,-0.90
2019-02-25T23:30:39.098Z,-0.90
2019-02-25T23:33:07.961Z,-0.90
2019-02-25T23:35:36.054Z,-0.90
2019-02-25T23:38:04.487Z,-1.00
2019-02-25T23:40:35.330Z,-1.00
2019-02-25T23:43:03.401Z,-1.00
2019-02-25T23:45:33.220Z,-1.00
2019-02-25T23:48:02.296Z,-1.00
2019-02-25T23:50:32.322Z,-1.00
2019-02-25T23:53:01.940Z,-1.00
2019-02-25T23:55:30.394Z,-1.10
2019-02-25T23:57:58.846Z,-1.20
